createdAt,value
2023-02-03T00:02:05.137Z,90.46
2023-02-03T00:04:32.309Z,90.69
2023-02-03T00:06:59.488Z,90.84
2023-02-03T00:09:26.801Z,90.73
2023-02-03T00:11:54.490Z,90.86
2023-02-03T00:14:21.553Z,90.75
2023-02-03T00:16:48.942Z,90.49
2023-02-03T00:19:17.630Z,90.91
2023-02-03T00:21:45.258Z,91.15
2023-02-03T00:24:12.351Z,90.44
2023-02-03T00:26:43.695Z,91.06
2023-02-03T00:29:11.733Z,90.73
2023-02-03T00:31:39.100Z,91.04
2023-02-03T00:34:06.573Z,90.90
2023-02-03T00:36:33.770Z,91.29
2023-02-03T00:39:01.550Z,91.38
2023-02-03T00:41:31.131Z,91.57
2023-02-03T00:43:58.640Z,91.15
2023-02-03T00:46:25.672Z,91.48
2023-02-03T00:48:52.705Z,91.70
2023-02-03T00:51:19.824Z,91.29
2023-02-03T00:53:48.087Z,91.42
2023-02-03T00:56:15.559Z,91.60
2023-02-03T00:58:42.972Z,91.68
2023-02-03T01:01:11.219Z,91.91
2023-02-03T01:03:39.288Z,91.76
2023-02-03T01:06:20.725Z,91.92
2023-02-03T01:08:48.686Z,91.85
2023-02-03T01:11:18.417Z,91.99
2023-02-03T01:13:45.817Z,92.25
2023-02-03T01:16:15.455Z,91.68
2023-02-03T01:18:43.055Z,91.56
2023-02-03T01:21:20.129Z,91.50
2023-02-03T01:23:47.492Z,92.07
2023-02-03T01:26:16.920Z,91.91
2023-02-03T01:28:44.193Z,92.14
2023-02-03T01:31:21.486Z,91.99
2023-02-03T01:33:48.897Z,92.44
2023-02-03T01:36:17.405Z,92.08
2023-02-03T01:38:46.277Z,91.46
2023-02-03T01:41:19.211Z,91.75
2023-02-03T01:43:48.986Z,91.49
2023-02-03T01:46:28.432Z,91.34
2023-02-03T01:49:04.008Z,91.75
2023-02-03T01:51:32.106Z,91.97
2023-02-03T01:53:59.521Z,91.69
2023-02-03T01:56:30.757Z,91.42
2023-02-03T01:59:00.398Z,92.12
2023-02-03T02:01:30.423Z,91.58
2023-02-03T02:04:02.080Z,91.90
2023-02-03T02:06:29.583Z,92.17
2023-02-03T02:08:59.486Z,91.73
2023-02-03T02:11:27.113Z,91.77
2023-02-03T02:13:58.899Z,91.75
2023-02-03T02:16:45.477Z,91.55
2023-02-03T02:19:36.898Z,91.96
2023-02-03T02:22:48.485Z,91.89
2023-02-03T02:25:31.529Z,91.97
2023-02-03T02:28:20.029Z,91.58
2023-02-03T02:31:05.806Z,91.70
2023-02-03T02:34:00.109Z,92.08
2023-02-03T02:36:43.305Z,91.98
2023-02-03T02:39:18.997Z,92.14
2023-02-03T02:42:01.107Z,91.56
2023-02-03T02:44:56.163Z,92.06
2023-02-03T02:47:24.130Z,91.61
2023-02-03T02:50:23.396Z,91.92
2023-02-03T02:52:51.505Z,92.09
2023-02-03T02:55:28.033Z,92.13
2023-02-03T02:58:04.162Z,92.09
2023-02-03T03:00:33.479Z,92.16
2023-02-03T03:03:18.411Z,92.23
2023-02-03T03:05:53.164Z,91.86
2023-02-03T03:08:31.695Z,91.88
2023-02-03T03:11:00.381Z,91.67
2023-02-03T03:13:33.030Z,91.99
2023-02-03T03:16:05.321Z,91.86
2023-02-03T03:18:39.130Z,91.82
2023-02-03T03:21:07.603Z,91.38
2023-02-03T03:23:39.808Z,91.86
2023-02-03T03:26:35.957Z,92.08
2023-02-03T03:29:24.889Z,91.92
2023-02-03T03:31:52.157Z,91.75
2023-02-03T03:34:19.802Z,91.72
2023-02-03T03:37:08.462Z,91.71
2023-02-03T03:39:37.741Z,91.38
2023-02-03T03:42:23.542Z,91.44
2023-02-03T03:45:26.023Z,91.50
2023-02-03T03:48:20.010Z,91.56
2023-02-03T03:50:56.299Z,91.21
2023-02-03T03:53:25.962Z,91.06
2023-02-03T03:55:54.997Z,91.14
2023-02-03T03:58:26.619Z,91.31
2023-02-03T04:00:56.614Z,90.73
2023-02-03T04:03:28.661Z,91.17
2023-02-03T04:05:55.790Z,91.44
2023-02-03T04:08:22.957Z,91.08
2023-02-03T04:10:49.938Z,90.99
2023-02-03T04:13:20.010Z,91.27
2023-02-03T04:15:47.194Z,90.98
2023-02-03T04:18:15.671Z,90.85
2023-02-03T04:20:43.385Z,90.83
2023-02-03T04:23:10.746Z,90.76
2023-02-03T04:25:37.883Z,90.75
2023-02-03T04:28:06.237Z,90.32
2023-02-03T04:30:33.741Z,90.43
2023-02-03T04:33:00.953Z,90.16
2023-02-03T04:35:28.101Z,90.12
2023-02-03T04:37:55.326Z,90.16
2023-02-03T04:40:22.438Z,90.56
2023-02-03T04:42:49.487Z,90.36
2023-02-03T04:45:16.589Z,90.14
2023-02-03T04:47:43.727Z,90.22
2023-02-03T04:50:10.846Z,90.44
2023-02-03T04:52:38.251Z,89.50
2023-02-03T04:55:05.740Z,89.78
2023-02-03T04:57:32.835Z,89.77
2023-02-03T04:59:59.932Z,89.97
2023-02-03T05:02:26.857Z,89.72
2023-02-03T05:04:54.049Z,89.75
2023-02-03T05:07:21.051Z,89.72
2023-02-03T05:09:48.174Z,90.07
2023-02-03T05:12:15.236Z,89.94
2023-02-03T05:14:42.188Z,89.94
2023-02-03T05:17:09.194Z,90.04
2023-02-03T05:19:36.237Z,90.08
2023-02-03T05:22:03.368Z,90.13
2023-02-03T05:24:30.852Z,89.85
2023-02-03T05:26:57.856Z,90.40
2023-02-03T05:29:24.792Z,90.17
2023-02-03T05:31:51.937Z,90.00
2023-02-03T05:34:18.997Z,90.35
2023-02-03T05:36:46.268Z,90.31
2023-02-03T05:39:13.269Z,90.14
2023-02-03T05:41:52.539Z,90.17
2023-02-03T05:44:25.139Z,90.47
2023-02-03T05:46:57.570Z,90.42
2023-02-03T05:49:24.653Z,90.46
2023-02-03T05:51:55.430Z,90.42
2023-02-03T05:54:23.198Z,90.97
2023-02-03T05:56:50.187Z,90.69
2023-02-03T05:59:17.770Z,91.03
2023-02-03T06:01:44.806Z,91.11
2023-02-03T06:04:12.129Z,91.31
2023-02-03T06:06:39.160Z,91.11
2023-02-03T06:09:08.106Z,91.63
2023-02-03T06:11:36.117Z,91.64
2023-02-03T06:14:03.518Z,92.15
2023-02-03T06:16:30.671Z,91.67
2023-02-03T06:19:02.272Z,91.93
2023-02-03T06:21:29.586Z,91.70
2023-02-03T06:23:59.090Z,91.50
2023-02-03T06:26:26.249Z,91.06
2023-02-03T06:28:53.236Z,90.96
2023-02-03T06:31:20.991Z,91.81
2023-02-03T06:33:48.050Z,91.34
2023-02-03T06:36:15.128Z,91.61
2023-02-03T06:38:42.222Z,91.33
2023-02-03T06:41:09.453Z,91.44
2023-02-03T06:43:37.119Z,91.09
2023-02-03T06:46:04.280Z,91.21
2023-02-03T06:48:31.264Z,91.41
2023-02-03T06:50:58.271Z,91.22
2023-02-03T06:53:25.378Z,90.82
2023-02-03T06:55:52.427Z,91.06
2023-02-03T06:58:19.589Z,91.13
2023-02-03T07:00:46.697Z,91.33
2023-02-03T07:03:13.794Z,91.23
2023-02-03T07:05:40.993Z,91.29
2023-02-03T07:08:08.091Z,91.31
2023-02-03T07:10:35.177Z,91.19
2023-02-03T07:13:04.059Z,91.66
2023-02-03T07:15:31.197Z,91.84
2023-02-03T07:17:58.313Z,92.07
2023-02-03T07:20:25.975Z,92.66
2023-02-03T07:22:57.376Z,92.89
2023-02-03T07:25:25.304Z,93.45
2023-02-03T07:27:52.695Z,93.86
2023-02-03T07:30:20.029Z,94.19
2023-02-03T07:32:50.936Z,94.81
2023-02-03T07:35:18.287Z,95.15
2023-02-03T07:37:46.025Z,95.13
2023-02-03T07:40:14.208Z,95.60
2023-02-03T07:42:45.897Z,95.80
2023-02-03T07:45:15.683Z,95.72
2023-02-03T07:47:43.755Z,95.84
2023-02-03T07:50:11.828Z,95.96
2023-02-03T07:52:39.224Z,96.35
2023-02-03T07:55:06.836Z,96.90
2023-02-03T07:57:33.945Z,96.72
2023-02-03T08:00:01.230Z,97.49
2023-02-03T08:02:28.321Z,97.25
2023-02-03T08:04:58.236Z,97.52
2023-02-03T08:07:25.368Z,97.11
2023-02-03T08:09:52.468Z,97.42
2023-02-03T08:12:19.537Z,97.60
2023-02-03T08:14:46.589Z,97.61
2023-02-03T08:17:13.553Z,97.56
2023-02-03T08:19:40.649Z,97.53
2023-02-03T08:22:07.649Z,97.95
2023-02-03T08:24:34.727Z,98.24
2023-02-03T08:27:01.890Z,97.98
2023-02-03T08:29:28.913Z,98.35
2023-02-03T08:31:56.440Z,98.56
2023-02-03T08:34:23.463Z,98.63
2023-02-03T08:36:50.567Z,98.56
2023-02-03T08:39:17.601Z,98.38
2023-02-03T08:41:44.641Z,98.55
2023-02-03T08:44:11.852Z,98.64
2023-02-03T08:46:43.731Z,98.62
2023-02-03T08:49:11.327Z,98.64
2023-02-03T08:51:38.488Z,99.18
2023-02-03T08:54:05.860Z,98.94
2023-02-03T08:56:34.332Z,99.05
2023-02-03T08:59:01.570Z,99.21
2023-02-03T09:01:29.041Z,99.16
2023-02-03T09:03:56.366Z,99.25
2023-02-03T09:06:26.136Z,99.20
2023-02-03T09:08:53.393Z,99.35
2023-02-03T09:11:20.561Z,99.81
2023-02-03T09:13:48.880Z,99.67
2023-02-03T09:16:18.655Z,99.98
2023-02-03T09:18:46.626Z,100.00
2023-02-03T09:21:31.681Z,100.00
2023-02-03T09:24:04.227Z,100.00
2023-02-03T09:26:31.639Z,100.00
2023-02-03T09:28:58.744Z,100.00
2023-02-03T09:31:25.909Z,100.00
2023-02-03T09:33:52.994Z,100.00
2023-02-03T09:36:20.157Z,100.00
2023-02-03T09:38:47.302Z,100.00
2023-02-03T09:41:29.273Z,100.00
2023-02-03T09:44:00.280Z,100.00
2023-02-03T09:46:30.473Z,100.00
2023-02-03T09:49:04.884Z,100.00
2023-02-03T09:51:46.435Z,100.00
2023-02-03T09:54:22.537Z,100.00
2023-02-03T09:56:52.631Z,100.00
2023-02-03T09:59:19.874Z,100.00
2023-02-03T10:02:02.013Z,100.00
2023-02-03T10:04:35.189Z,100.00
2023-02-03T10:07:25.618Z,100.00
2023-02-03T10:10:15.196Z,100.00
2023-02-03T10:12:57.120Z,100.00
2023-02-03T10:15:52.129Z,100.00
2023-02-03T10:18:35.280Z,100.00
2023-02-03T10:21:29.920Z,100.00
2023-02-03T10:23:58.928Z,100.00
2023-02-03T10:26:28.170Z,100.00
2023-02-03T10:28:57.892Z,100.00
2023-02-03T10:31:32.093Z,100.00
2023-02-03T10:34:11.263Z,100.00
2023-02-03T10:36:53.339Z,100.00
2023-02-03T10:39:25.132Z,100.00
2023-02-03T10:41:53.568Z,100.00
2023-02-03T10:44:20.698Z,100.00
2023-02-03T10:46:47.822Z,100.00
2023-02-03T10:49:16.679Z,100.00
2023-02-03T10:51:50.809Z,100.00
2023-02-03T10:54:44.083Z,100.00
2023-02-03T10:57:16.853Z,100.00
2023-02-03T10:59:47.091Z,100.00
2023-02-03T11:02:27.182Z,100.00
2023-02-03T11:05:21.061Z,100.00
2023-02-03T11:07:48.830Z,100.00
2023-02-03T11:10:36.388Z,100.00
2023-02-03T11:13:26.194Z,100.00
2023-02-03T11:15:57.976Z,100.00
2023-02-03T11:18:40.351Z,100.00
2023-02-03T11:21:15.107Z,100.00
2023-02-03T11:23:49.831Z,100.00
2023-02-03T11:26:22.150Z,100.00
2023-02-03T11:28:51.943Z,100.00
2023-02-03T11:31:23.844Z,100.00
2023-02-03T11:34:18.167Z,100.00
2023-02-03T11:36:45.285Z,100.00
2023-02-03T11:39:25.000Z,100.00
2023-02-03T11:41:52.605Z,100.00
2023-02-03T11:44:29.670Z,100.00
2023-02-03T11:47:10.211Z,100.00
2023-02-03T11:49:49.454Z,100.00
2023-02-03T11:52:38.301Z,100.00
2023-02-03T11:55:33.291Z,100.00
2023-02-03T11:58:38.410Z,100.00
2023-02-03T12:01:20.537Z,100.00
2023-02-03T12:04:17.231Z,100.00
2023-02-03T12:06:56.897Z,100.00
2023-02-03T12:09:28.912Z,100.00
2023-02-03T12:12:27.960Z,100.00
2023-02-03T12:15:27.704Z,100.00
2023-02-03T12:18:06.845Z,100.00
2023-02-03T12:20:40.923Z,100.00
2023-02-03T12:23:49.085Z,100.00
2023-02-03T12:26:37.843Z,100.00
2023-02-03T12:29:10.278Z,100.00
2023-02-03T12:31:44.988Z,100.00
2023-02-03T12:34:23.364Z,100.00
2023-02-03T12:37:23.927Z,100.00
2023-02-03T12:40:12.892Z,100.00
2023-02-03T12:42:57.946Z,100.00
2023-02-03T12:45:35.158Z,100.00
2023-02-03T12:48:10.340Z,100.00
2023-02-03T12:50:46.224Z,100.00
2023-02-03T12:53:19.703Z,100.00
2023-02-03T12:55:52.140Z,100.00
2023-02-03T12:58:28.710Z,100.00
2023-02-03T13:01:10.504Z,100.00
2023-02-03T13:03:47.122Z,100.00
2023-02-03T13:06:25.104Z,100.00
2023-02-03T13:09:14.247Z,100.00
2023-02-03T13:11:48.843Z,100.00
2023-02-03T13:14:28.422Z,100.00
2023-02-03T13:17:01.945Z,100.00
2023-02-03T13:19:39.876Z,100.00
2023-02-03T13:22:15.119Z,100.00
2023-02-03T13:24:48.106Z,100.00
2023-02-03T13:27:38.275Z,100.00
2023-02-03T13:30:11.741Z,100.00
2023-02-03T13:33:10.640Z,100.00
2023-02-03T13:35:43.276Z,100.00
2023-02-03T13:38:28.814Z,100.00
2023-02-03T13:41:14.322Z,100.00
2023-02-03T13:43:46.891Z,100.00
2023-02-03T13:46:36.032Z,100.00
2023-02-03T13:49:05.938Z,100.00
2023-02-03T13:51:37.966Z,100.00
2023-02-03T13:54:08.753Z,100.00
2023-02-03T13:56:36.054Z,100.00
2023-02-03T13:59:05.804Z,100.00
2023-02-03T14:01:40.135Z,100.00
2023-02-03T14:04:27.849Z,100.00
2023-02-03T14:06:59.025Z,100.00
2023-02-03T14:09:34.128Z,100.00
2023-02-03T14:12:16.343Z,100.00
2023-02-03T14:14:44.843Z,100.00
2023-02-03T14:17:36.601Z,100.00
2023-02-03T14:20:25.990Z,100.00
2023-02-03T14:23:00.985Z,100.00
2023-02-03T14:25:28.962Z,100.00
2023-02-03T14:28:15.843Z,100.00
2023-02-03T14:31:29.607Z,100.00
2023-02-03T14:34:15.613Z,100.00
2023-02-03T14:36:55.108Z,100.00
2023-02-03T14:39:55.588Z,100.00
2023-02-03T14:42:44.848Z,100.00
2023-02-03T14:45:49.126Z,100.00
2023-02-03T14:48:47.101Z,100.00
2023-02-03T14:51:45.958Z,100.00
2023-02-03T14:54:34.500Z,100.00
2023-02-03T14:57:23.622Z,100.00
2023-02-03T14:59:56.674Z,100.00
2023-02-03T15:02:31.255Z,100.00
2023-02-03T15:05:13.896Z,100.00
2023-02-03T15:07:45.521Z,100.00
2023-02-03T15:10:17.669Z,100.00
2023-02-03T15:12:50.787Z,100.00
2023-02-03T15:15:21.774Z,100.00
2023-02-03T15:17:53.383Z,100.00
2023-02-03T15:20:32.454Z,100.00
2023-02-03T15:23:00.339Z,100.00
2023-02-03T15:25:30.981Z,100.00
2023-02-03T15:28:14.131Z,100.00
2023-02-03T15:30:41.776Z,100.00
2023-02-03T15:33:15.630Z,100.00
2023-02-03T15:35:45.610Z,100.00
2023-02-03T15:38:18.370Z,100.00
2023-02-03T15:40:49.467Z,100.00
2023-02-03T15:43:38.391Z,100.00
2023-02-03T15:46:17.903Z,100.00
2023-02-03T15:49:23.416Z,100.00
2023-02-03T15:51:57.100Z,100.00
2023-02-03T15:54:41.307Z,100.00
2023-02-03T15:57:16.548Z,100.00
2023-02-03T15:59:51.386Z,100.00
2023-02-03T16:02:22.893Z,100.00
2023-02-03T16:04:50.648Z,100.00
2023-02-03T16:07:29.280Z,100.00
2023-02-03T16:09:58.151Z,100.00
2023-02-03T16:12:28.134Z,100.00
2023-02-03T16:14:57.073Z,100.00
2023-02-03T16:17:30.155Z,100.00
2023-02-03T16:20:12.577Z,100.00
2023-02-03T16:22:42.600Z,100.00
2023-02-03T16:25:15.626Z,100.00
2023-02-03T16:27:45.016Z,100.00
2023-02-03T16:30:30.950Z,100.00
2023-02-03T16:33:36.743Z,100.00
2023-02-03T16:36:32.814Z,100.00
2023-02-03T16:39:22.065Z,100.00
2023-02-03T16:42:07.842Z,100.00
2023-02-03T16:44:53.312Z,100.00
2023-02-03T16:47:45.420Z,100.00
2023-02-03T16:50:39.254Z,100.00
2023-02-03T16:53:12.805Z,100.00
2023-02-03T16:55:40.528Z,100.00
2023-02-03T16:58:08.541Z,100.00
2023-02-03T17:00:35.718Z,100.00
2023-02-03T17:03:05.801Z,100.00
2023-02-03T17:05:37.832Z,100.00
2023-02-03T17:08:05.658Z,100.00
2023-02-03T17:10:38.455Z,100.00
2023-02-03T17:13:06.315Z,100.00
2023-02-03T17:15:33.872Z,100.00
2023-02-03T17:18:01.495Z,100.00
2023-02-03T17:20:28.578Z,100.00
2023-02-03T17:22:55.744Z,100.00
2023-02-03T17:25:23.047Z,100.00
2023-02-03T17:27:50.190Z,100.00
2023-02-03T17:30:17.461Z,100.00
2023-02-03T17:32:44.595Z,100.00
2023-02-03T17:35:11.736Z,100.00
2023-02-03T17:37:38.861Z,100.00
2023-02-03T17:54:14.501Z,100.00
2023-02-03T17:56:41.684Z,100.00
2023-02-03T17:59:10.112Z,100.00
2023-02-03T18:01:38.624Z,100.00
2023-02-03T18:04:06.484Z,100.00
2023-02-03T18:06:35.404Z,100.00
2023-02-03T18:09:08.020Z,100.00
2023-02-03T18:11:36.156Z,100.00
2023-02-03T18:14:05.208Z,100.00
2023-02-03T18:16:35.021Z,100.00
2023-02-03T18:19:06.956Z,100.00
2023-02-03T18:21:34.376Z,100.00
2023-02-03T18:24:02.118Z,100.00
2023-02-03T18:26:34.593Z,100.00
2023-02-03T18:29:02.101Z,100.00
2023-02-03T18:31:29.334Z,100.00
2023-02-03T18:33:56.921Z,100.00
2023-02-03T18:36:23.886Z,100.00
2023-02-03T18:38:50.936Z,100.00
2023-02-03T18:41:20.593Z,100.00
2023-02-03T18:43:49.460Z,100.00
2023-02-03T18:46:25.765Z,100.00
2023-02-03T18:48:53.315Z,100.00
2023-02-03T18:51:21.915Z,100.00
2023-02-03T18:53:49.961Z,100.00
2023-02-03T18:56:19.737Z,100.00
2023-02-03T18:58:47.651Z,100.00
2023-02-03T19:01:26.604Z,100.00
2023-02-03T19:03:59.232Z,100.00
2023-02-03T19:06:30.160Z,100.00
2023-02-03T19:08:58.938Z,100.00
2023-02-03T19:11:26.436Z,100.00
2023-02-03T19:13:54.081Z,100.00
2023-02-03T19:16:21.820Z,100.00
2023-02-03T19:18:49.107Z,100.00
2023-02-03T19:21:17.647Z,100.00
2023-02-03T19:23:44.760Z,100.00
2023-02-03T19:26:12.436Z,100.00
2023-02-03T19:28:40.920Z,100.00
2023-02-03T19:31:15.369Z,100.00
2023-02-03T19:33:43.235Z,100.00
2023-02-03T19:36:11.805Z,100.00
2023-02-03T19:38:39.381Z,100.00
2023-02-03T19:41:08.472Z,100.00
2023-02-03T19:43:35.729Z,100.00
2023-02-03T19:46:03.062Z,100.00
2023-02-03T19:48:30.555Z,100.00
2023-02-03T19:50:57.842Z,100.00
2023-02-03T19:53:25.098Z,100.00
2023-02-03T19:55:52.803Z,100.00
2023-02-03T19:58:20.475Z,100.00
2023-02-03T20:00:47.519Z,100.00
2023-02-03T20:03:14.735Z,100.00
2023-02-03T20:05:41.994Z,100.00
2023-02-03T20:08:13.333Z,100.00
2023-02-03T20:10:42.594Z,100.00
2023-02-03T20:13:10.987Z,100.00
2023-02-03T20:15:38.326Z,100.00
2023-02-03T20:18:06.869Z,100.00
2023-02-03T20:20:34.810Z,100.00
2023-02-03T20:23:02.090Z,100.00
2023-02-03T20:25:29.367Z,100.00
2023-02-03T20:27:58.438Z,100.00
2023-02-03T20:30:25.743Z,100.00
2023-02-03T20:32:54.846Z,100.00
2023-02-03T20:35:23.986Z,100.00
2023-02-03T20:37:51.507Z,100.00
2023-02-03T20:40:22.484Z,100.00
2023-02-03T20:42:50.626Z,100.00
2023-02-03T20:45:19.957Z,100.00
2023-02-03T20:47:47.490Z,100.00
2023-02-03T20:50:18.478Z,100.00
2023-02-03T20:52:50.814Z,100.00
2023-02-03T20:55:21.127Z,100.00
2023-02-03T20:57:51.498Z,100.00
2023-02-03T21:00:21.482Z,100.00
2023-02-03T21:03:07.479Z,100.00
2023-02-03T21:05:43.533Z,100.00
2023-02-03T21:08:18.829Z,100.00
2023-02-03T21:10:47.383Z,100.00
2023-02-03T21:13:28.112Z,100.00
2023-02-03T21:15:59.618Z,100.00
2023-02-03T21:18:32.827Z,100.00
2023-02-03T21:21:00.610Z,100.00
2023-02-03T21:23:37.785Z,100.00
2023-02-03T21:26:28.689Z,100.00
2023-02-03T21:28:58.613Z,100.00
2023-02-03T21:31:31.775Z,100.00
2023-02-03T21:34:02.732Z,100.00
2023-02-03T21:36:35.340Z,100.00
2023-02-03T21:39:02.997Z,100.00
2023-02-03T21:41:33.975Z,100.00
2023-02-03T21:44:01.235Z,100.00
2023-02-03T21:46:32.015Z,100.00
2023-02-03T21:49:04.153Z,100.00
2023-02-03T21:51:35.292Z,100.00
2023-02-03T21:54:16.041Z,100.00
2023-02-03T21:56:45.556Z,100.00
2023-02-03T21:59:24.695Z,100.00
2023-02-03T22:01:53.577Z,100.00
2023-02-03T22:04:20.722Z,100.00
2023-02-03T22:06:50.667Z,100.00
2023-02-03T22:09:20.186Z,100.00
2023-02-03T22:11:47.286Z,100.00
2023-02-03T22:14:16.800Z,100.00
2023-02-03T22:16:44.727Z,100.00
2023-02-03T22:19:11.853Z,100.00
2023-02-03T22:21:39.306Z,100.00
2023-02-03T22:24:06.882Z,100.00
2023-02-03T22:26:34.049Z,100.00
2023-02-03T22:29:02.485Z,100.00
2023-02-03T22:31:29.798Z,100.00
2023-02-03T22:33:56.974Z,100.00
2023-02-03T22:36:24.115Z,100.00
2023-02-03T22:38:51.283Z,100.00
2023-02-03T22:41:18.629Z,100.00
2023-02-03T22:43:45.656Z,100.00
2023-02-03T22:46:12.864Z,100.00
2023-02-03T22:48:39.930Z,100.00
2023-02-03T22:51:07.053Z,100.00
2023-02-03T22:53:35.046Z,100.00
2023-02-03T22:56:02.434Z,100.00
2023-02-03T22:58:29.547Z,100.00
2023-02-03T23:00:56.662Z,100.00
2023-02-03T23:03:23.902Z,100.00
2023-02-03T23:05:51.028Z,100.00
2023-02-03T23:08:18.159Z,100.00
2023-02-03T23:10:45.262Z,100.00
2023-02-03T23:13:12.485Z,100.00
2023-02-03T23:15:39.614Z,100.00
2023-02-03T23:18:06.715Z,100.00
2023-02-03T23:20:33.881Z,100.00
2023-02-03T23:23:00.981Z,100.00
2023-02-03T23:25:28.046Z,100.00
2023-02-03T23:27:55.223Z,100.00
2023-02-03T23:30:22.432Z,100.00
2023-02-03T23:32:49.482Z,100.00
2023-02-03T23:35:34.998Z,100.00
2023-02-03T23:38:02.123Z,100.00
2023-02-03T23:40:29.590Z,100.00
2023-02-03T23:42:56.996Z,100.00
2023-02-03T23:45:24.050Z,100.00
2023-02-03T23:47:51.257Z,100.00
2023-02-03T23:50:19.290Z,100.00
2023-02-03T23:52:47.078Z,100.00
2023-02-03T23:55:20.989Z,100.00
2023-02-03T23:57:48.204Z,100.00
